Time;durP1;ratioP1;P1;durP2;ratioP2;P2;SDS_P1;SDS_P2;PMS_P1;PMS_P2;Temp;Humidity;BMP_temperature;BMP_pressure;BME280_temperature;BME280_humidity;BME280_pressure;Samples;Min_cycle;Max_cycle;Signal;HPM_P1;HPM_P2
2021/12/09 00:01:32;;;;;;;;;3.33;2.00;;;;;;;;5032278;28;44798;-87
2021/12/09 00:03:59;;;;;;;;;1.00;1.00;;;;;;;;5033006;28;45334;-86
2021/12/09 00:06:28;;;;;;;;;3.67;2.33;;;;;;;;5032849;28;47389;-86
2021/12/09 00:08:54;;;;;;;;;5.00;3.00;;;;;;;;5030018;28;45419;-85
2021/12/09 00:11:19;;;;;;;;;4.00;3.33;;;;;;;;5016722;28;45407;-86
2021/12/09 00:13:45;;;;;;;;;3.67;1.67;;;;;;;;5031427;28;45410;-86
2021/12/09 00:16:10;;;;;;;;;2.33;0.67;;;;;;;;5012210;28;47166;-86
2021/12/09 00:18:35;;;;;;;;;4.33;3.33;;;;;;;;5028916;28;45253;-86
2021/12/09 00:21:01;;;;;;;;;2.00;2.00;;;;;;;;5030245;28;45617;-86
2021/12/09 00:23:26;;;;;;;;;1.00;1.00;;;;;;;;5011632;28;45173;-85
2021/12/09 00:25:51;;;;;;;;;1.67;1.67;;;;;;;;5011313;28;47239;-85
2021/12/09 00:28:17;;;;;;;;;1.00;1.00;;;;;;;;5011038;28;45770;-85
2021/12/09 00:30:42;;;;;;;;;1.00;1.00;;;;;;;;5011345;28;45774;-87
2021/12/09 00:33:08;;;;;;;;;1.00;1.00;;;;;;;;5026806;28;45700;-86
2021/12/09 00:38:39;;;;;;;;;1.67;1.67;;;;;;;;5017620;28;45505;-86
2021/12/09 00:41:11;;;;;;;;;1.00;0.00;;;;;;;;5028088;28;44823;-86
2021/12/09 00:43:37;;;;;;;;;1.67;1.67;;;;;;;;5009117;28;45719;-86
2021/12/09 00:46:03;;;;;;;;;1.67;0.00;;;;;;;;5026965;28;45469;-86
2021/12/09 00:48:28;;;;;;;;;0.33;0.33;;;;;;;;5028715;28;45385;-86
2021/12/09 00:50:54;;;;;;;;;2.67;0.00;;;;;;;;5013497;28;45341;-85
2021/12/09 00:53:20;;;;;;;;;0.00;0.00;;;;;;;;5012423;28;45534;-84
2021/12/09 00:55:45;;;;;;;;;0.67;0.67;;;;;;;;5028587;28;45642;-84
2021/12/09 00:58:11;;;;;;;;;0.00;0.00;;;;;;;;5029072;28;45608;-86
2021/12/09 01:00:37;;;;;;;;;1.00;1.00;;;;;;;;5012654;28;45782;-84
2021/12/09 01:03:02;;;;;;;;;1.00;1.00;;;;;;;;5032162;28;44886;-84
2021/12/09 01:05:28;;;;;;;;;2.00;2.00;;;;;;;;5031904;28;47094;-85
2021/12/09 01:07:54;;;;;;;;;1.67;1.00;;;;;;;;5015264;28;45783;-85
2021/12/09 01:10:20;;;;;;;;;0.00;0.00;;;;;;;;5013973;28;45518;-85
2021/12/09 01:13:19;;;;;;;;;1.00;1.00;;;;;;;;5015120;28;45408;-86
2021/12/09 01:15:44;;;;;;;;;0.67;0.00;;;;;;;;5013640;28;47518;-86
2021/12/09 01:18:10;;;;;;;;;1.00;1.00;;;;;;;;5011111;28;45840;-86
2021/12/09 01:20:35;;;;;;;;;0.00;0.00;;;;;;;;5013806;28;45445;-86
2021/12/09 01:23:02;;;;;;;;;0.33;0.33;;;;;;;;5030166;28;45471;-85
2021/12/09 01:25:32;;;;;;;;;1.00;1.00;;;;;;;;5011133;28;47673;-85
2021/12/09 01:27:57;;;;;;;;;1.00;1.00;;;;;;;;5010688;28;45387;-86
2021/12/09 01:30:23;;;;;;;;;1.00;1.00;;;;;;;;5012171;28;45770;-86
2021/12/09 01:32:51;;;;;;;;;0.33;0.33;;;;;;;;5010810;28;45402;-86
2021/12/09 01:35:28;;;;;;;;;1.00;1.00;;;;;;;;5010138;28;47620;-86
2021/12/09 01:37:57;;;;;;;;;2.00;0.00;;;;;;;;5028503;28;45239;-85
2021/12/09 01:40:23;;;;;;;;;0.00;0.00;;;;;;;;5011092;28;45476;-86
2021/12/09 01:42:49;;;;;;;;;0.00;0.00;;;;;;;;5011488;28;45345;-86
2021/12/09 01:45:14;;;;;;;;;0.00;0.00;;;;;;;;5011296;28;46888;-86
2021/12/09 01:47:40;;;;;;;;;1.00;1.00;;;;;;;;5011907;28;45743;-85
2021/12/09 01:50:07;;;;;;;;;0.00;0.00;;;;;;;;5010388;28;45516;-85
2021/12/09 01:52:32;;;;;;;;;0.00;0.00;;;;;;;;5010534;28;45502;-86
2021/12/09 01:54:58;;;;;;;;;0.00;0.00;;;;;;;;5009636;28;46901;-85
2021/12/09 01:57:23;;;;;;;;;0.00;0.00;;;;;;;;5010426;28;44920;-86
2021/12/09 01:59:48;;;;;;;;;0.67;0.67;;;;;;;;5028290;28;45430;-85
2021/12/09 02:05:17;;;;;;;;;1.00;0.00;;;;;;;;5045081;28;45892;-88
2021/12/09 02:07:42;;;;;;;;;0.33;0.33;;;;;;;;5045247;28;45394;-87
2021/12/09 02:10:10;;;;;;;;;0.00;0.00;;;;;;;;5044488;28;45502;-88
2021/12/09 02:12:35;;;;;;;;;0.33;0.33;;;;;;;;5027958;28;45605;-88
2021/12/09 02:15:01;;;;;;;;;0.00;0.00;;;;;;;;5028755;28;47382;-88
2021/12/09 02:17:28;;;;;;;;;0.00;0.00;;;;;;;;5044298;28;45694;-88
2021/12/09 02:19:55;;;;;;;;;2.00;1.00;;;;;;;;5044839;28;45350;-88
2021/12/09 02:22:20;;;;;;;;;1.00;1.00;;;;;;;;5044235;28;45644;-88
2021/12/09 02:24:45;;;;;;;;;0.00;0.00;;;;;;;;5045481;28;45492;-87
2021/12/09 02:27:11;;;;;;;;;0.00;0.00;;;;;;;;5042795;28;45148;-88
2021/12/09 02:32:40;;;;;;;;;2.00;0.00;;;;;;;;5043724;28;45643;-88
2021/12/09 02:35:11;;;;;;;;;3.33;1.67;;;;;;;;5025718;28;47022;-87
2021/12/09 02:37:37;;;;;;;;;0.00;0.00;;;;;;;;5043384;28;45425;-87
2021/12/09 02:40:04;;;;;;;;;0.33;0.33;;;;;;;;5045149;28;45263;-88
2021/12/09 02:42:29;;;;;;;;;0.00;0.00;;;;;;;;5045789;28;45647;-88
2021/12/09 02:44:57;;;;;;;;;0.00;0.00;;;;;;;;5043384;28;46862;-88
2021/12/09 02:47:22;;;;;;;;;0.00;0.00;;;;;;;;5043176;28;45435;-87
2021/12/09 02:49:48;;;;;;;;;0.00;0.00;;;;;;;;5043273;28;45741;-87
2021/12/09 02:52:13;;;;;;;;;1.00;1.00;;;;;;;;5042999;28;45549;-87
2021/12/09 02:54:38;;;;;;;;;3.33;0.33;;;;;;;;5044078;28;47214;-87
2021/12/09 02:57:05;;;;;;;;;1.33;0.67;;;;;;;;5043646;28;45387;-87
2021/12/09 02:59:31;;;;;;;;;1.00;1.00;;;;;;;;5044876;28;45495;-87
2021/12/09 03:02:00;;;;;;;;;1.67;1.67;;;;;;;;5043799;28;45338;-87
2021/12/09 03:04:46;;;;;;;;;0.33;0.33;;;;;;;;5026690;28;47082;-87
2021/12/09 03:07:24;;;;;;;;;0.00;0.00;;;;;;;;5026027;28;45484;-87
2021/12/09 03:09:53;;;;;;;;;0.00;0.00;;;;;;;;5044162;28;45524;-87
2021/12/09 03:12:23;;;;;;;;;1.67;1.00;;;;;;;;5043590;28;45365;-87
2021/12/09 03:14:49;;;;;;;;;0.33;0.33;;;;;;;;5042082;28;47404;-86
2021/12/09 03:17:14;;;;;;;;;1.00;0.00;;;;;;;;5042609;28;45455;-87
2021/12/09 03:19:39;;;;;;;;;0.00;0.00;;;;;;;;5044391;28;45426;-87
2021/12/09 03:22:05;;;;;;;;;1.00;1.00;;;;;;;;5042942;28;45378;-87
2021/12/09 03:24:30;;;;;;;;;0.67;0.67;;;;;;;;5042729;28;46898;-87
2021/12/09 03:26:57;;;;;;;;;1.00;1.00;;;;;;;;5042763;28;45382;-87
2021/12/09 03:29:24;;;;;;;;;0.00;0.00;;;;;;;;5044287;28;45326;-87
2021/12/09 03:31:51;;;;;;;;;2.00;1.00;;;;;;;;5027349;28;45586;-87
2021/12/09 03:34:17;;;;;;;;;0.00;0.00;;;;;;;;5024498;28;46810;-87
2021/12/09 03:36:42;;;;;;;;;2.33;2.33;;;;;;;;5025176;28;44907;-88
2021/12/09 03:39:10;;;;;;;;;0.00;0.00;;;;;;;;5009447;28;45430;-87
2021/12/09 03:41:37;;;;;;;;;1.00;1.00;;;;;;;;5024650;28;45540;-87
2021/12/09 03:44:03;;;;;;;;;0.00;0.00;;;;;;;;5008496;28;47452;-87
2021/12/09 03:46:28;;;;;;;;;3.00;1.00;;;;;;;;5008356;28;45653;-87
2021/12/09 03:48:53;;;;;;;;;0.00;0.00;;;;;;;;5026197;28;45354;-87
2021/12/09 03:51:19;;;;;;;;;1.00;0.67;;;;;;;;5008182;28;45516;-88
2021/12/09 03:53:44;;;;;;;;;3.67;1.67;;;;;;;;5025018;28;46947;-88
2021/12/09 03:56:09;;;;;;;;;0.33;0.33;;;;;;;;5026547;28;45386;-88
2021/12/09 03:58:35;;;;;;;;;0.33;0.33;;;;;;;;5010751;28;45230;-87
2021/12/09 04:01:00;;;;;;;;;0.00;0.00;;;;;;;;5027276;28;45487;-87
2021/12/09 04:03:25;;;;;;;;;3.00;1.00;;;;;;;;5029173;28;47415;-87
2021/12/09 04:05:52;;;;;;;;;2.33;1.00;;;;;;;;5027203;28;45778;-87
2021/12/09 04:08:17;;;;;;;;;1.00;1.00;;;;;;;;5027534;28;45436;-87
2021/12/09 04:10:43;;;;;;;;;2.67;1.67;;;;;;;;5028855;28;45856;-88
2021/12/09 04:13:08;;;;;;;;;1.00;1.00;;;;;;;;5028149;28;45554;-87
2021/12/09 04:15:34;;;;;;;;;1.00;1.00;;;;;;;;5026103;28;45735;-88
2021/12/09 04:17:59;;;;;;;;;2.33;1.00;;;;;;;;5026440;28;44762;-88
2021/12/09 04:20:25;;;;;;;;;0.00;0.00;;;;;;;;5025646;28;45533;-88
2021/12/09 04:22:50;;;;;;;;;0.00;0.00;;;;;;;;5024637;28;46863;-88
2021/12/09 04:25:17;;;;;;;;;1.00;1.00;;;;;;;;5025100;28;45709;-88
2021/12/09 04:27:42;;;;;;;;;2.00;2.00;;;;;;;;5024868;28;45501;-89
2021/12/09 04:30:08;;;;;;;;;0.67;0.67;;;;;;;;5025751;28;45379;-88
2021/12/09 04:32:33;;;;;;;;;2.00;0.67;;;;;;;;5023559;28;48152;-89
2021/12/09 04:34:58;;;;;;;;;1.00;1.00;;;;;;;;5025770;28;45355;-88
2021/12/09 04:37:23;;;;;;;;;0.67;0.67;;;;;;;;5026146;28;45448;-88
2021/12/09 04:39:49;;;;;;;;;0.00;0.00;;;;;;;;5027172;28;45531;-88
2021/12/09 04:42:14;;;;;;;;;1.00;1.00;;;;;;;;5027597;28;47010;-88
2021/12/09 04:44:39;;;;;;;;;2.00;1.00;;;;;;;;5045061;28;45374;-87
2021/12/09 04:47:04;;;;;;;;;0.00;0.00;;;;;;;;5027284;28;45251;-88
2021/12/09 04:49:30;;;;;;;;;1.33;0.00;;;;;;;;5027881;28;45628;-88
2021/12/09 04:51:57;;;;;;;;;0.00;0.00;;;;;;;;5027653;28;46777;-87
2021/12/09 04:54:23;;;;;;;;;0.33;0.00;;;;;;;;5028323;28;45545;-88
2021/12/09 04:56:48;;;;;;;;;1.00;1.00;;;;;;;;5027715;28;45358;-88
2021/12/09 04:59:13;;;;;;;;;0.33;0.33;;;;;;;;5029324;28;45608;-87
2021/12/09 05:01:49;;;;;;;;;0.00;0.00;;;;;;;;5030251;28;47062;-88
2021/12/09 05:04:14;;;;;;;;;4.00;1.67;;;;;;;;5047135;28;44753;-88
2021/12/09 05:06:40;;;;;;;;;0.00;0.00;;;;;;;;5027948;28;45478;-88
2021/12/09 05:09:10;;;;;;;;;2.67;1.67;;;;;;;;5028253;28;45379;-88
2021/12/09 05:14:01;;;;;;;;;0.67;0.67;;;;;;;;5045175;28;45437;-88
2021/12/09 05:16:27;;;;;;;;;0.00;0.00;;;;;;;;5027230;28;45545;-88
2021/12/09 05:18:59;;;;;;;;;1.00;1.00;;;;;;;;5046492;28;44800;-88
2021/12/09 05:21:36;;;;;;;;;1.33;1.33;;;;;;;;5029757;28;47274;-89
2021/12/09 05:24:02;;;;;;;;;1.00;1.00;;;;;;;;5028782;28;45513;-88
2021/12/09 05:26:32;;;;;;;;;1.33;0.00;;;;;;;;5026358;28;45346;-88
2021/12/09 05:28:58;;;;;;;;;2.67;2.67;;;;;;;;5026282;28;44743;-88
2021/12/09 05:34:09;;;;;;;;;1.00;1.00;;;;;;;;5026752;28;45319;-88
2021/12/09 05:36:34;;;;;;;;;1.33;0.67;;;;;;;;5010567;28;45394;-88
2021/12/09 05:38:59;;;;;;;;;2.67;2.00;;;;;;;;5010637;28;45666;-88
2021/12/09 05:41:25;;;;;;;;;2.00;2.00;;;;;;;;5009789;28;47085;-88
2021/12/09 05:43:50;;;;;;;;;5.00;3.00;;;;;;;;5008130;28;45427;-88
2021/12/09 05:46:16;;;;;;;;;2.00;2.00;;;;;;;;5009543;28;45444;-88
2021/12/09 05:48:41;;;;;;;;;5.67;1.00;;;;;;;;5009517;28;45608;-89
2021/12/09 05:51:07;;;;;;;;;1.33;1.33;;;;;;;;5008237;28;48365;-89
2021/12/09 05:53:40;;;;;;;;;1.67;1.00;;;;;;;;4994414;28;45809;-87
2021/12/09 05:56:05;;;;;;;;;1.00;1.00;;;;;;;;5025473;28;45853;-88
2021/12/09 05:58:31;;;;;;;;;1.00;1.00;;;;;;;;5025652;28;45470;-88
2021/12/09 06:00:56;;;;;;;;;5.67;1.00;;;;;;;;5025880;28;46291;-89
2021/12/09 06:03:22;;;;;;;;;1.00;1.00;;;;;;;;5010659;28;45457;-89
2021/12/09 06:05:49;;;;;;;;;3.00;3.00;;;;;;;;5027936;28;45282;-88
2021/12/09 06:08:14;;;;;;;;;1.00;1.00;;;;;;;;5010937;28;44900;-88
2021/12/09 06:10:39;;;;;;;;;0.00;0.00;;;;;;;;5027707;28;46271;-88
2021/12/09 06:13:05;;;;;;;;;3.00;2.67;;;;;;;;5009570;28;45935;-89
2021/12/09 06:15:30;;;;;;;;;5.00;2.00;;;;;;;;5017928;28;45478;-89
2021/12/09 06:17:55;;;;;;;;;1.00;1.00;;;;;;;;5030506;28;45524;-88
2021/12/09 06:20:21;;;;;;;;;3.00;1.00;;;;;;;;5026590;28;48199;-88
2021/12/09 06:22:46;;;;;;;;;1.33;1.33;;;;;;;;5045126;28;45409;-88
2021/12/09 06:25:17;;;;;;;;;3.67;3.67;;;;;;;;5027773;28;45635;-88
2021/12/09 06:27:43;;;;;;;;;1.00;1.00;;;;;;;;5029524;28;45770;-88
2021/12/09 06:30:09;;;;;;;;;3.00;2.00;;;;;;;;5028117;28;46761;-88
2021/12/09 06:32:34;;;;;;;;;3.00;3.00;;;;;;;;5026693;28;45305;-89
2021/12/09 06:35:00;;;;;;;;;3.00;2.00;;;;;;;;5030184;28;45448;-88
2021/12/09 06:37:32;;;;;;;;;6.00;3.00;;;;;;;;5028219;28;45470;-88
2021/12/09 06:40:04;;;;;;;;;2.33;1.00;;;;;;;;5028499;28;47076;-88
2021/12/09 06:42:30;;;;;;;;;2.00;2.00;;;;;;;;5027888;28;45421;-88
2021/12/09 06:44:55;;;;;;;;;3.67;2.33;;;;;;;;5029033;28;45576;-88
2021/12/09 06:47:20;;;;;;;;;3.00;2.00;;;;;;;;5048609;28;44895;-88
2021/12/09 06:49:46;;;;;;;;;5.00;2.00;;;;;;;;5031068;28;47076;-88
2021/12/09 06:52:11;;;;;;;;;2.00;2.00;;;;;;;;5029131;28;45493;-88
2021/12/09 06:54:36;;;;;;;;;1.67;1.67;;;;;;;;5029560;28;45420;-87
2021/12/09 06:57:01;;;;;;;;;2.67;2.67;;;;;;;;5045340;28;45690;-88
2021/12/09 06:59:27;;;;;;;;;2.00;2.00;;;;;;;;5027722;28;46776;-88
2021/12/09 07:01:52;;;;;;;;;2.33;2.33;;;;;;;;5032650;28;44805;-87
2021/12/09 07:04:20;;;;;;;;;5.00;3.00;;;;;;;;5030077;28;45437;-88
2021/12/09 07:06:45;;;;;;;;;5.00;2.67;;;;;;;;5046266;28;44800;-88
2021/12/09 07:09:11;;;;;;;;;3.00;3.00;;;;;;;;5027786;28;47064;-88
2021/12/09 07:11:36;;;;;;;;;2.67;2.67;;;;;;;;5011083;28;45412;-88
2021/12/09 07:14:02;;;;;;;;;2.00;2.00;;;;;;;;5027025;28;45350;-88
2021/12/09 07:16:27;;;;;;;;;6.00;5.00;;;;;;;;5028191;28;45403;-89
2021/12/09 07:18:52;;;;;;;;;3.67;3.67;;;;;;;;5030415;28;47119;-88
2021/12/09 07:21:18;;;;;;;;;3.67;3.67;;;;;;;;5031043;28;45743;-88
2021/12/09 07:23:43;;;;;;;;;5.33;3.00;;;;;;;;5031743;28;45386;-88
2021/12/09 07:26:09;;;;;;;;;5.00;3.67;;;;;;;;5032519;28;45518;-88
2021/12/09 07:28:34;;;;;;;;;3.00;3.00;;;;;;;;5031759;28;48187;-88
2021/12/09 07:31:00;;;;;;;;;6.00;6.00;;;;;;;;5050602;28;45345;-89
2021/12/09 07:33:25;;;;;;;;;6.33;3.00;;;;;;;;5050325;28;45332;-89
2021/12/09 07:35:50;;;;;;;;;3.67;3.67;;;;;;;;5034488;28;45533;-89
2021/12/09 07:38:16;;;;;;;;;2.00;2.00;;;;;;;;5028598;28;46858;-88
2021/12/09 07:40:41;;;;;;;;;3.67;3.67;;;;;;;;5032276;28;45366;-88
2021/12/09 07:43:06;;;;;;;;;5.00;5.00;;;;;;;;5031010;28;45731;-88
2021/12/09 07:45:32;;;;;;;;;5.00;5.00;;;;;;;;5030347;28;45314;-88
2021/12/09 07:47:58;;;;;;;;;5.00;2.67;;;;;;;;5013201;28;45553;-89
2021/12/09 07:50:26;;;;;;;;;3.33;3.33;;;;;;;;5013124;28;45427;-86
2021/12/09 07:52:52;;;;;;;;;2.67;2.67;;;;;;;;5012743;28;45375;-85
2021/12/09 07:55:19;;;;;;;;;5.33;4.67;;;;;;;;5012732;28;44826;-86
2021/12/09 07:57:53;;;;;;;;;2.00;2.00;;;;;;;;5013373;28;46804;-89
2021/12/09 08:00:24;;;;;;;;;7.00;7.00;;;;;;;;5027774;28;44812;-89
2021/12/09 08:02:49;;;;;;;;;5.67;5.33;;;;;;;;5029883;28;45416;-89
2021/12/09 08:05:16;;;;;;;;;5.50;5.50;;;;;;;;5009966;28;45444;-89
2021/12/09 08:07:43;;;;;;;;;6.00;5.33;;;;;;;;5007249;28;46891;-89
2021/12/09 08:10:13;;;;;;;;;5.00;5.00;;;;;;;;5017750;28;45339;-89
2021/12/09 08:12:38;;;;;;;;;5.00;5.00;;;;;;;;5015158;28;45330;-89
2021/12/09 08:15:05;;;;;;;;;5.00;5.00;;;;;;;;5013722;28;45521;-89
2021/12/09 08:20:05;;;;;;;;;5.67;5.67;;;;;;;;5032971;28;45482;-89
2021/12/09 08:22:30;;;;;;;;;5.00;5.00;;;;;;;;5014239;28;44844;-88
2021/12/09 08:25:00;;;;;;;;;3.67;3.67;;;;;;;;5015475;28;44969;-87
2021/12/09 08:27:26;;;;;;;;;9.00;3.67;;;;;;;;5015540;28;45689;-88
2021/12/09 08:29:52;;;;;;;;;7.00;7.00;;;;;;;;5033449;28;45467;-88
2021/12/09 08:32:17;;;;;;;;;5.33;5.33;;;;;;;;5017213;28;45346;-88
2021/12/09 08:34:43;;;;;;;;;3.00;3.00;;;;;;;;5017581;28;45493;-88
2021/12/09 08:37:08;;;;;;;;;6.00;6.00;;;;;;;;5034516;28;45300;-88
2021/12/09 08:39:34;;;;;;;;;8.33;5.00;;;;;;;;5017599;28;45427;-89
2021/12/09 08:41:59;;;;;;;;;5.33;5.33;;;;;;;;5035923;28;45197;-87
2021/12/09 08:44:24;;;;;;;;;5.00;5.00;;;;;;;;5055015;28;44727;-87
2021/12/09 08:47:08;;;;;;;;;9.00;5.33;;;;;;;;5037769;28;45719;-88
2021/12/09 08:49:34;;;;;;;;;3.00;3.00;;;;;;;;5051979;28;46326;-89
2021/12/09 08:52:05;;;;;;;;;5.00;5.00;;;;;;;;5039571;28;44835;-90
2021/12/09 08:54:31;;;;;;;;;8.33;7.67;;;;;;;;5054404;28;45568;-89
2021/12/09 08:57:11;;;;;;;;;6.00;6.00;;;;;;;;5045615;28;45608;-89
2021/12/09 08:59:43;;;;;;;;;5.00;5.00;;;;;;;;5019662;28;44810;-88
2021/12/09 09:02:14;;;;;;;;;6.00;4.33;;;;;;;;5024382;28;45172;-87
2021/12/09 09:04:40;;;;;;;;;4.67;3.00;;;;;;;;5027204;28;45453;-89
2021/12/09 09:07:05;;;;;;;;;3.67;3.67;;;;;;;;5035921;28;47040;-89
2021/12/09 09:09:34;;;;;;;;;2.00;2.00;;;;;;;;5043850;28;45373;-89
2021/12/09 09:12:00;;;;;;;;;6.67;5.67;;;;;;;;5050729;28;45470;-87
2021/12/09 09:15:00;;;;;;;;;;;;;;;;;;;;;
2021/12/09 09:17:25;;;;;;;;;6.00;4.33;;;;;;;;5051555;28;75788;-88
2021/12/09 09:19:51;;;;;;;;;5.33;5.33;;;;;;;;5034812;28;44880;-89
2021/12/09 09:22:52;;;;;;;;;5.50;5.50;;;;;;;;5056574;28;44848;-89
2021/12/09 09:30:22;;;;;;;;;6.33;6.33;;;;;;;;5092702;27;44764;-88
2021/12/09 09:32:49;;;;;;;;;7.67;7.67;;;;;;;;5065301;28;45449;-87
2021/12/09 09:35:17;;;;;;;;;7.67;5.00;;;;;;;;5055211;28;45578;-88
2021/12/09 09:37:43;;;;;;;;;6.33;6.33;;;;;;;;5072667;28;45170;-88
2021/12/09 09:40:11;;;;;;;;;4.33;3.00;;;;;;;;5053445;28;45550;-88
2021/12/09 09:45:12;;;;;;;;;5.33;3.00;;;;;;;;5074990;28;44799;-88
2021/12/09 09:47:46;;;;;;;;;5.00;5.00;;;;;;;;5055406;28;47285;-88
2021/12/09 09:53:15;;;;;;;;;6.00;6.00;;;;;;;;5071865;28;45366;-89
2021/12/09 09:55:46;;;;;;;;;6.33;5.67;;;;;;;;5072100;28;45654;-88
2021/12/09 09:58:12;;;;;;;;;6.00;6.00;;;;;;;;5038081;28;47211;-89
2021/12/09 10:00:40;;;;;;;;;5.33;5.00;;;;;;;;5054557;28;45542;-88
2021/12/09 10:03:16;;;;;;;;;6.00;6.00;;;;;;;;5055656;28;45319;-88
2021/12/09 10:05:44;;;;;;;;;5.00;5.00;;;;;;;;5071568;27;45298;-89
2021/12/09 10:08:12;;;;;;;;;5.00;5.00;;;;;;;;5055579;28;46939;-90
2021/12/09 10:10:46;;;;;;;;;6.00;5.00;;;;;;;;5053798;28;44875;-89
2021/12/09 10:13:28;;;;;;;;;4.33;4.33;;;;;;;;5070592;28;45334;-88
2021/12/09 10:15:59;;;;;;;;;5.00;5.00;;;;;;;;5053909;28;44851;-87
2021/12/09 10:18:34;;;;;;;;;5.33;5.33;;;;;;;;5051459;28;46771;-89
2021/12/09 10:21:02;;;;;;;;;6.00;6.00;;;;;;;;5053991;28;44840;-88
2021/12/09 10:23:33;;;;;;;;;10.00;6.00;;;;;;;;5054879;28;45315;-89
2021/12/09 10:32:10;;;;;;;;;6.33;6.33;;;;;;;;4985288;28;45363;-90
2021/12/09 10:34:40;;;;;;;;;5.00;5.00;;;;;;;;4975436;28;44871;-89
2021/12/09 10:37:06;;;;;;;;;5.67;5.67;;;;;;;;4975325;28;44957;-89
2021/12/09 10:39:38;;;;;;;;;5.33;3.67;;;;;;;;4985931;28;46892;-90
2021/12/09 10:42:10;;;;;;;;;5.33;5.33;;;;;;;;4983410;28;44700;-91
2021/12/09 10:44:43;;;;;;;;;2.00;2.00;;;;;;;;4979149;28;44865;-89
2021/12/09 10:55:44;;;;;;;;;3.67;3.67;;;;;;;;4984590;28;45268;-88
2021/12/09 10:58:13;;;;;;;;;6.00;6.00;;;;;;;;4982320;28;45985;-87
2021/12/09 11:00:40;;;;;;;;;5.00;5.00;;;;;;;;4995405;28;46985;-88
2021/12/09 11:03:08;;;;;;;;;2.67;2.33;;;;;;;;4975526;28;45518;-88
2021/12/09 11:05:37;;;;;;;;;6.00;5.00;;;;;;;;5010946;28;45390;-88
2021/12/09 11:08:19;;;;;;;;;3.00;3.00;;;;;;;;5044569;28;45332;-87
2021/12/09 11:10:51;;;;;;;;;2.33;2.33;;;;;;;;5087276;28;45519;-88
2021/12/09 11:13:21;;;;;;;;;7.00;7.00;;;;;;;;5059575;28;45240;-88
2021/12/09 11:16:09;;;;;;;;;2.33;2.33;;;;;;;;5043873;28;44930;-86
2021/12/09 11:18:45;;;;;;;;;4.33;2.67;;;;;;;;5046646;28;45472;-89
2021/12/09 11:21:39;;;;;;;;;3.00;3.00;;;;;;;;5022172;28;45186;-91
2021/12/09 11:24:55;;;;;;;;;2.00;2.00;;;;;;;;5061481;28;45425;-90
2021/12/09 11:27:14;;;;;;;;;1.67;1.67;;;;;;;;5064872;28;44939;-89
2021/12/09 11:30:07;;;;;;;;;2.00;2.00;;;;;;;;5061553;27;45107;-89
2021/12/09 14:16:35;;;;;;;;;6.67;3.67;;;;;;;;4848272;29;45841;-87
2021/12/09 14:31:23;;;;;;;;;3.00;3.00;;;;;;;;4871887;29;44765;-89
2021/12/09 14:37:18;;;;;;;;;4.00;4.00;;;;;;;;4857738;29;45077;-88
2021/12/09 14:40:00;;;;;;;;;5.00;4.00;;;;;;;;4877059;29;45317;-89
2021/12/09 14:46:09;;;;;;;;;;;;;;;;;;;;;
2021/12/09 14:48:51;;;;;;;;;5.00;5.00;;;;;;;;4856780;29;65043;-88
2021/12/09 14:51:33;;;;;;;;;8.00;3.67;;;;;;;;4834616;29;47040;-89
2021/12/09 14:54:17;;;;;;;;;3.67;3.67;;;;;;;;4858582;29;45428;-86
2021/12/09 14:56:54;;;;;;;;;5.33;5.33;;;;;;;;4878095;29;45697;-87
2021/12/09 14:59:22;;;;;;;;;7.00;5.33;;;;;;;;4879212;29;45505;-86
2021/12/09 15:01:49;;;;;;;;;3.00;2.67;;;;;;;;4870564;29;45584;-87
2021/12/09 15:04:41;;;;;;;;;6.00;2.00;;;;;;;;4861876;29;45241;-88
2021/12/09 15:16:54;;;;;;;;;3.00;3.00;;;;;;;;4914372;28;44843;-88
2021/12/09 15:19:20;;;;;;;;;3.00;3.00;;;;;;;;4877326;29;44945;-88
2021/12/09 15:25:20;;;;;;;;;3.00;3.00;;;;;;;;4882032;29;46271;-88
2021/12/09 15:27:52;;;;;;;;;2.00;2.00;;;;;;;;4866902;29;45359;-86
2021/12/09 15:30:59;;;;;;;;;;;;;;;;;;;;;
2021/12/09 15:34:02;;;;;;;;;;;;;;;;;;;;;
2021/12/09 15:53:19;;;;;;;;;5.00;5.00;;;;;;;;4828737;29;44887;-90
2021/12/09 15:56:24;;;;;;;;;;;;;;;;;;;;;
2021/12/09 15:59:38;;;;;;;;;7.67;3.00;;;;;;;;4839490;29;64835;-89
2021/12/09 16:02:44;;;;;;;;;6.00;5.33;;;;;;;;4837101;29;45637;-90
2021/12/09 16:15:11;;;;;;;;;8.00;6.00;;;;;;;;4793032;29;45369;-89
2021/12/09 17:40:51;;;;;;;;;13.33;7.00;;;;;;;;4856508;29;45938;-87
2021/12/09 17:43:24;;;;;;;;;8.33;5.67;;;;;;;;4989667;23;45248;-87
2021/12/09 17:55:55;;;;;;;;;10.00;8.33;;;;;;;;4873929;29;45349;-87
2021/12/09 17:58:49;;;;;;;;;9.67;7.00;;;;;;;;4863290;29;45456;-86
2021/12/09 18:01:31;;;;;;;;;13.00;10.00;;;;;;;;4872299;29;45561;-87
2021/12/09 18:07:44;;;;;;;;;7.33;6.00;;;;;;;;4874202;29;45463;-87
2021/12/09 18:10:14;;;;;;;;;7.33;5.00;;;;;;;;4855551;29;45429;-87
2021/12/09 18:13:05;;;;;;;;;9.00;9.00;;;;;;;;4871677;29;45216;-87
2021/12/09 18:15:40;;;;;;;;;7.67;7.67;;;;;;;;4873328;29;45382;-86
2021/12/09 18:18:16;;;;;;;;;10.00;6.67;;;;;;;;4857004;29;45379;-86
2021/12/09 18:20:57;;;;;;;;;6.67;6.67;;;;;;;;4872206;29;45514;-86
2021/12/09 18:23:44;;;;;;;;;9.67;7.67;;;;;;;;4872196;29;45529;-87
2021/12/09 18:26:18;;;;;;;;;6.33;6.33;;;;;;;;4857690;29;45491;-87
2021/12/09 18:29:05;;;;;;;;;9.00;9.00;;;;;;;;4899857;28;45683;-87
2021/12/09 18:31:39;;;;;;;;;9.67;9.67;;;;;;;;4932988;28;45404;-87
2021/12/09 18:34:07;;;;;;;;;9.67;8.33;;;;;;;;4929976;28;46072;-86
2021/12/09 18:36:39;;;;;;;;;7.00;7.00;;;;;;;;4932105;28;45862;-87
2021/12/09 18:39:14;;;;;;;;;7.00;7.00;;;;;;;;4916229;28;45388;-86
2021/12/09 18:41:54;;;;;;;;;9.00;9.00;;;;;;;;4929373;28;45357;-86
2021/12/09 19:01:11;;;;;;;;;9.67;9.67;;;;;;;;4938285;23;45080;-87
2021/12/09 19:04:04;;;;;;;;;7.00;7.00;;;;;;;;4930490;28;45290;-87
2021/12/09 19:06:32;;;;;;;;;9.00;9.00;;;;;;;;4932537;28;45366;-86
2021/12/09 19:08:59;;;;;;;;;9.00;6.67;;;;;;;;4915158;28;46866;-86
2021/12/09 19:11:25;;;;;;;;;9.00;9.00;;;;;;;;4912997;28;45409;-86
2021/12/09 19:13:51;;;;;;;;;9.00;9.00;;;;;;;;4914712;28;45505;-86
2021/12/09 19:16:26;;;;;;;;;13.00;10.67;;;;;;;;4934237;28;45706;-87
2021/12/09 19:18:52;;;;;;;;;7.00;7.00;;;;;;;;4918339;28;48162;-86
2021/12/09 19:21:19;;;;;;;;;7.33;6.67;;;;;;;;4935747;28;45473;-86
2021/12/09 19:23:44;;;;;;;;;10.33;6.00;;;;;;;;4918384;28;44749;-87
2021/12/09 19:26:10;;;;;;;;;12.33;10.00;;;;;;;;4918393;28;45357;-87
2021/12/09 19:28:37;;;;;;;;;6.00;6.00;;;;;;;;4919347;28;46709;-87
2021/12/09 19:31:03;;;;;;;;;13.33;8.67;;;;;;;;4917880;28;45334;-87
2021/12/09 19:33:29;;;;;;;;;8.00;6.67;;;;;;;;4933506;28;45414;-88
2021/12/09 19:35:57;;;;;;;;;11.33;8.67;;;;;;;;4915872;28;45515;-87
2021/12/09 19:38:22;;;;;;;;;15.67;12.00;;;;;;;;4932360;28;46996;-87
2021/12/09 19:40:48;;;;;;;;;8.33;7.33;;;;;;;;4914528;28;45486;-88
2021/12/09 19:43:13;;;;;;;;;11.00;9.33;;;;;;;;4915032;28;45826;-88
2021/12/09 19:45:38;;;;;;;;;11.00;7.33;;;;;;;;4935038;28;45510;-87
2021/12/09 19:48:05;;;;;;;;;10.67;9.33;;;;;;;;4933862;28;46856;-87
2021/12/09 19:50:30;;;;;;;;;9.33;7.00;;;;;;;;4916768;28;45357;-88
2021/12/09 19:52:56;;;;;;;;;7.00;7.00;;;;;;;;4932954;28;45409;-88
2021/12/09 19:55:23;;;;;;;;;7.00;6.00;;;;;;;;4914851;28;45290;-88
2021/12/09 19:57:52;;;;;;;;;6.00;6.00;;;;;;;;4932875;28;46263;-86
2021/12/09 20:00:22;;;;;;;;;8.33;8.33;;;;;;;;4932869;28;45425;-87
2021/12/09 20:02:57;;;;;;;;;7.67;6.00;;;;;;;;4910044;28;45853;-87
2021/12/09 20:05:22;;;;;;;;;7.33;7.00;;;;;;;;4913834;28;45208;-87
2021/12/09 20:07:48;;;;;;;;;12.33;8.00;;;;;;;;4912930;29;45571;-87
2021/12/09 20:10:16;;;;;;;;;7.33;7.33;;;;;;;;4916882;28;45298;-87
2021/12/09 20:12:42;;;;;;;;;6.67;6.67;;;;;;;;4930897;28;45412;-86
2021/12/09 20:15:09;;;;;;;;;8.33;8.00;;;;;;;;4932137;28;45858;-86
2021/12/09 20:17:35;;;;;;;;;10.00;7.33;;;;;;;;4933098;28;45408;-86
2021/12/09 20:20:01;;;;;;;;;6.00;5.67;;;;;;;;4934059;28;45365;-87
2021/12/09 20:22:29;;;;;;;;;13.67;10.67;;;;;;;;4934754;28;45461;-87
2021/12/09 20:25:00;;;;;;;;;6.00;5.33;;;;;;;;4932242;28;44879;-87
2021/12/09 20:27:29;;;;;;;;;5.67;5.33;;;;;;;;4933046;28;45416;-87
2021/12/09 20:30:19;;;;;;;;;4.33;3.00;;;;;;;;4933350;28;45350;-86
2021/12/09 20:32:44;;;;;;;;;7.67;7.67;;;;;;;;4932328;28;45461;-86
2021/12/09 20:35:09;;;;;;;;;7.67;6.00;;;;;;;;4932285;28;45318;-86
2021/12/09 20:37:37;;;;;;;;;5.00;5.00;;;;;;;;4916962;28;46413;-87
2021/12/09 20:40:03;;;;;;;;;4.33;4.33;;;;;;;;4932296;28;45357;-86
2021/12/09 20:42:29;;;;;;;;;5.67;4.00;;;;;;;;4930784;28;45458;-87
2021/12/09 20:44:54;;;;;;;;;6.00;6.00;;;;;;;;4930934;28;45127;-88
2021/12/09 20:47:19;;;;;;;;;5.67;5.67;;;;;;;;4931560;28;46884;-87
2021/12/09 20:49:45;;;;;;;;;6.00;6.00;;;;;;;;4933853;28;45800;-87
2021/12/09 20:52:10;;;;;;;;;6.00;6.00;;;;;;;;4933429;28;45958;-87
2021/12/09 20:54:35;;;;;;;;;6.00;3.67;;;;;;;;4933766;28;45349;-87
2021/12/09 20:57:01;;;;;;;;;5.00;5.00;;;;;;;;4933857;28;45351;-87
2021/12/09 20:59:29;;;;;;;;;6.00;5.00;;;;;;;;4933455;28;45538;-87
2021/12/09 21:02:06;;;;;;;;;6.67;5.00;;;;;;;;4937687;28;45464;-87
2021/12/09 21:04:39;;;;;;;;;5.00;2.33;;;;;;;;4934415;28;45260;-87
2021/12/09 21:07:04;;;;;;;;;9.33;9.33;;;;;;;;4952489;28;45470;-86
2021/12/09 21:09:29;;;;;;;;;7.00;6.00;;;;;;;;4933321;28;45535;-87
2021/12/09 21:11:55;;;;;;;;;5.00;3.00;;;;;;;;4933226;28;44835;-86
2021/12/09 21:14:22;;;;;;;;;4.33;4.33;;;;;;;;4934581;28;45267;-87
2021/12/09 21:16:49;;;;;;;;;6.33;6.33;;;;;;;;4951683;28;45386;-86
2021/12/09 21:19:14;;;;;;;;;6.67;5.33;;;;;;;;4935835;28;45395;-86